Portada
METAR-TAF:

METAR-TAF

Aeroports :

Aeroport de Gran Canària

Gran Canària, Espanya

latitud: 27-56N, longitud: 015-23W, altitud: 23 m

Observació

L'informe es va fer fa 32 minuts, a les 16:30 UTC
Vent 6 kt del Sud-Est, variant entre Est/Sud-Est i Sud
Temperatura 20°C
Humitat 73%
Pressió 1014 hPa
Visibilitat 10 km o més
Escasses núvols a una alçada de 2500 ft
Cel ennuvolat a una alçada de 3300 ft

METAR: GCLP 311630Z 14006KT 110V170 9999 FEW025 BKN033 20/15 Q1014 NOSIG

Hora: 18:02 (17:02 UTC)

Pronòstic

L'informe es va fer fa 3 hores i 2 minuts, a les 14:00 UTC
Pronòstic vàlid del 31 a les 15 UTC al 01 a les 15 UTC
Vent 7 kt del Sud/Sud-Est
Visibilitat 10 km o més
Cel ennuvolat a una alçada de 3500 ft
Probabilitat 40%
l' 31 a les 16 UTC al 31 a les 19 UTC
Vent 10 kt del Est/Nord-Est
Evolucionant progressivament
l' 31 a les 19 UTC al 31 a les 21 UTC
Vent 10 kt del Nord/Nord-Oest

TAF: GCLP 311400Z 3115/0115 15007KT 9999 BKN035 TX22/0113Z TN16/0106Z PROB40 3116/3119 07010KT BECMG 3119/3121 33010KT

Observacions i pronòstics meteorològics de més de 4000 aeroports (METAR i TAF).

Les estacions disponibles són els punts grocs i vermells al mapa.

Posi el ratolí al punt desitjat per veure el nom de l'estació.

Feu clic per veure les observacions i els pronòstics meteorològics.

Per canviar el mapa: feu clic els botons verds amb una creu de color negre per apropar; al botó verd amb un guió per allunyar la imatge; o en les fletxes verdes per a mapes adjacents.


METAR-TAF: